createdAt,value
2023-05-09T00:02:24.951Z,19.01
2023-05-09T00:04:53.252Z,18.90
2023-05-09T00:07:21.774Z,18.88
2023-05-09T00:09:50.062Z,18.83
2023-05-09T00:12:18.286Z,18.68
2023-05-09T00:14:46.924Z,18.59
2023-05-09T00:17:16.602Z,18.50
2023-05-09T00:19:45.376Z,18.46
2023-05-09T00:22:13.802Z,18.40
2023-05-09T00:24:42.201Z,18.28
2023-05-09T00:27:11.154Z,18.21
2023-05-09T00:29:39.373Z,18.16
2023-05-09T00:32:07.712Z,18.13
2023-05-09T00:34:36.107Z,18.06
2023-05-09T00:37:04.319Z,17.92
2023-05-09T00:39:32.571Z,17.82
2023-05-09T00:42:00.781Z,17.82
2023-05-09T00:44:29.007Z,17.86
2023-05-09T00:46:57.350Z,17.80
2023-05-09T00:49:25.601Z,17.76
2023-05-09T00:51:55.622Z,17.70
2023-05-09T00:54:23.956Z,17.62
2023-05-09T00:56:52.876Z,17.61
2023-05-09T00:59:21.775Z,17.57
2023-05-09T01:01:50.106Z,17.54
2023-05-09T01:04:18.402Z,17.50
2023-05-09T01:07:29.216Z,17.41
2023-05-09T01:10:15.582Z,17.39
2023-05-09T01:12:55.787Z,17.35
2023-05-09T01:16:02.473Z,17.24
2023-05-09T01:19:03.310Z,17.19
2023-05-09T01:21:34.273Z,17.14
2023-05-09T01:24:05.631Z,17.05
2023-05-09T01:26:43.952Z,17.01
2023-05-09T01:29:18.584Z,16.93
2023-05-09T01:31:50.219Z,16.82
2023-05-09T01:34:20.050Z,16.76
2023-05-09T01:36:51.239Z,16.69
2023-05-09T01:39:20.784Z,16.57
2023-05-09T01:41:50.540Z,16.52
2023-05-09T01:44:19.709Z,16.51
2023-05-09T01:46:48.891Z,16.53
2023-05-09T01:49:19.488Z,16.49
2023-05-09T01:51:50.258Z,16.44
2023-05-09T01:54:19.846Z,16.45
2023-05-09T01:56:48.866Z,16.42
2023-05-09T01:59:18.437Z,16.35
2023-05-09T02:01:48.358Z,16.30
2023-05-09T02:04:19.064Z,16.26
2023-05-09T02:06:53.468Z,16.26
2023-05-09T02:09:22.411Z,16.26
2023-05-09T02:11:50.894Z,16.25
2023-05-09T02:14:19.131Z,16.19
2023-05-09T02:16:47.432Z,16.15
2023-05-09T02:19:15.642Z,16.16
2023-05-09T02:21:44.039Z,16.19
2023-05-09T02:24:12.516Z,16.22
2023-05-09T02:26:42.431Z,16.18
2023-05-09T02:29:13.130Z,16.12
2023-05-09T02:31:43.702Z,16.03
2023-05-09T02:34:13.233Z,15.98
2023-05-09T02:36:41.956Z,15.94
2023-05-09T02:39:10.574Z,15.87
2023-05-09T02:41:38.816Z,15.82
2023-05-09T02:44:07.039Z,15.78
2023-05-09T02:46:35.468Z,15.77
2023-05-09T02:49:03.724Z,15.70
2023-05-09T02:51:32.000Z,15.65
2023-05-09T02:54:00.172Z,15.63
2023-05-09T02:56:28.391Z,15.61
2023-05-09T02:58:57.015Z,15.61
2023-05-09T03:01:25.264Z,15.60
2023-05-09T03:03:53.656Z,15.57
2023-05-09T03:06:21.856Z,15.50
2023-05-09T03:08:50.054Z,15.47
2023-05-09T03:11:18.247Z,15.45
2023-05-09T03:13:46.721Z,15.44
2023-05-09T03:16:16.552Z,15.42
2023-05-09T03:18:44.841Z,15.42
2023-05-09T03:21:13.626Z,15.40
2023-05-09T03:23:41.883Z,15.42
2023-05-09T03:26:10.081Z,15.40
2023-05-09T03:28:39.091Z,15.35
2023-05-09T03:31:07.400Z,15.34
2023-05-09T03:33:35.655Z,15.34
2023-05-09T03:36:03.858Z,15.37
2023-05-09T03:38:32.284Z,15.36
2023-05-09T03:41:00.513Z,15.34
2023-05-09T03:43:28.732Z,15.30
2023-05-09T03:45:56.992Z,15.28
2023-05-09T03:48:25.213Z,15.24
2023-05-09T03:50:53.446Z,15.22
2023-05-09T03:53:21.689Z,15.17
2023-05-09T03:55:50.041Z,15.11
2023-05-09T03:58:20.182Z,15.09
2023-05-09T04:00:48.970Z,15.05
2023-05-09T04:03:17.363Z,15.02
2023-05-09T04:05:45.670Z,15.02
2023-05-09T04:08:13.940Z,15.00
2023-05-09T04:10:42.184Z,14.98
2023-05-09T04:13:10.432Z,14.97
2023-05-09T04:15:38.707Z,14.93
2023-05-09T04:18:07.458Z,14.90
2023-05-09T04:20:35.859Z,14.82
2023-05-09T04:23:04.058Z,14.79
2023-05-09T04:25:32.504Z,14.78
2023-05-09T04:28:00.710Z,14.74
2023-05-09T04:30:28.907Z,14.73
2023-05-09T04:32:57.164Z,14.69
2023-05-09T04:35:25.367Z,14.64
2023-05-09T04:37:53.780Z,14.59
2023-05-09T04:40:22.026Z,14.54
2023-05-09T04:42:50.638Z,14.52
2023-05-09T04:45:18.931Z,14.52
2023-05-09T04:47:47.330Z,14.51
2023-05-09T04:50:15.607Z,14.52
2023-05-09T04:52:43.814Z,14.56
2023-05-09T04:55:12.162Z,14.58
2023-05-09T04:57:40.659Z,14.53
2023-05-09T05:00:12.199Z,14.50
2023-05-09T05:02:40.435Z,14.48
2023-05-09T05:05:11.969Z,14.46
2023-05-09T05:07:40.913Z,14.42
2023-05-09T05:10:09.636Z,14.34
2023-05-09T05:12:37.888Z,14.31
2023-05-09T05:15:06.687Z,14.30
2023-05-09T05:17:34.914Z,14.25
2023-05-09T05:20:03.996Z,14.25
2023-05-09T05:22:32.858Z,14.25
2023-05-09T05:25:01.227Z,14.21
2023-05-09T05:27:29.465Z,14.20
2023-05-09T05:29:57.924Z,14.23
2023-05-09T05:32:26.219Z,14.23
2023-05-09T05:34:54.393Z,14.25
2023-05-09T05:37:22.627Z,14.22
2023-05-09T05:39:52.437Z,14.22
2023-05-09T05:42:20.637Z,14.19
2023-05-09T05:44:49.167Z,14.17
2023-05-09T05:47:17.381Z,14.16
2023-05-09T05:49:46.246Z,14.13
2023-05-09T05:52:15.067Z,14.06
2023-05-09T05:54:43.304Z,14.08
2023-05-09T05:57:11.716Z,14.07
2023-05-09T05:59:39.912Z,14.05
2023-05-09T06:02:08.160Z,13.97
2023-05-09T06:04:36.409Z,13.94
2023-05-09T06:07:04.757Z,13.91
2023-05-09T06:09:32.922Z,13.89
2023-05-09T06:12:01.096Z,13.87
2023-05-09T06:14:29.284Z,13.83
2023-05-09T06:16:57.723Z,13.80
2023-05-09T06:19:26.344Z,13.76
2023-05-09T06:21:54.513Z,13.74
2023-05-09T06:24:34.567Z,13.74
2023-05-09T06:27:03.889Z,13.71
2023-05-09T06:29:32.085Z,13.70
2023-05-09T06:32:00.466Z,13.66
2023-05-09T06:34:28.717Z,13.62
2023-05-09T06:36:56.931Z,13.57
2023-05-09T06:39:25.123Z,13.52
2023-05-09T06:41:53.334Z,13.49
2023-05-09T06:44:21.587Z,13.44
2023-05-09T06:46:50.400Z,13.39
2023-05-09T06:49:18.665Z,13.38
2023-05-09T06:51:47.168Z,13.35
2023-05-09T06:54:15.403Z,13.39
2023-05-09T06:56:43.707Z,13.40
2023-05-09T06:59:17.166Z,13.39
2023-05-09T07:01:45.372Z,13.34
2023-05-09T07:04:13.678Z,13.28
2023-05-09T07:06:41.885Z,13.25
2023-05-09T07:09:10.666Z,13.27
2023-05-09T07:11:38.952Z,13.30
2023-05-09T07:14:07.136Z,13.29
2023-05-09T07:16:37.400Z,13.27
2023-05-09T07:19:06.116Z,13.21
2023-05-09T07:21:35.237Z,13.17
2023-05-09T07:24:03.404Z,13.16
2023-05-09T07:26:31.919Z,13.15
2023-05-09T07:29:00.288Z,13.11
2023-05-09T07:31:28.619Z,13.09
2023-05-09T07:33:56.861Z,13.08
2023-05-09T07:36:25.157Z,13.02
2023-05-09T07:38:54.322Z,13.02
2023-05-09T07:41:23.311Z,12.98
2023-05-09T07:43:51.588Z,12.99
2023-05-09T07:46:19.922Z,12.97
2023-05-09T07:48:48.560Z,12.94
2023-05-09T07:51:16.999Z,12.94
2023-05-09T07:53:45.177Z,12.92
2023-05-09T07:56:14.247Z,12.89
2023-05-09T07:58:42.481Z,12.88
2023-05-09T08:01:11.046Z,12.84
2023-05-09T08:03:39.334Z,12.87
2023-05-09T08:06:07.781Z,12.88
2023-05-09T08:08:37.708Z,12.87
2023-05-09T08:11:07.180Z,12.84
2023-05-09T08:13:35.392Z,12.80
2023-05-09T08:16:03.783Z,12.77
2023-05-09T08:18:32.017Z,12.78
2023-05-09T08:21:00.515Z,12.75
2023-05-09T08:23:28.813Z,12.73
2023-05-09T08:25:57.635Z,12.73
2023-05-09T08:28:25.803Z,12.74
2023-05-09T08:30:54.081Z,12.74
2023-05-09T08:33:22.292Z,12.75
2023-05-09T08:35:54.378Z,12.76
2023-05-09T08:38:22.625Z,12.76
2023-05-09T08:40:50.939Z,12.74
2023-05-09T08:43:21.067Z,12.72
2023-05-09T08:45:55.443Z,12.71
2023-05-09T08:48:24.341Z,12.69
2023-05-09T08:50:53.185Z,12.64
2023-05-09T08:53:22.964Z,12.62
2023-05-09T08:55:54.650Z,12.58
2023-05-09T08:58:23.465Z,12.54
2023-05-09T09:00:51.749Z,12.49
2023-05-09T09:03:20.165Z,12.43
2023-05-09T09:05:50.490Z,12.41
2023-05-09T09:08:19.694Z,12.39
2023-05-09T09:10:48.510Z,12.35
2023-05-09T09:13:18.545Z,12.30
2023-05-09T09:15:48.480Z,12.26
2023-05-09T09:18:29.377Z,12.20
2023-05-09T09:21:13.397Z,12.18
2023-05-09T09:23:44.150Z,12.12
2023-05-09T09:26:12.433Z,12.06
2023-05-09T09:28:41.036Z,12.07
2023-05-09T09:31:26.476Z,12.05
2023-05-09T09:34:02.040Z,12.01
2023-05-09T09:36:33.210Z,12.00
2023-05-09T09:39:03.245Z,12.01
2023-05-09T09:41:35.950Z,12.00
2023-05-09T09:44:12.410Z,11.97
2023-05-09T09:46:49.345Z,11.92
2023-05-09T09:49:22.712Z,11.85
2023-05-09T09:51:59.068Z,11.76
2023-05-09T09:54:30.397Z,11.69
2023-05-09T09:56:58.574Z,11.62
2023-05-09T09:59:28.240Z,11.57
2023-05-09T10:02:07.562Z,11.54
2023-05-09T10:04:38.327Z,11.48
2023-05-09T10:07:08.334Z,11.47
2023-05-09T10:09:38.835Z,11.47
2023-05-09T10:12:09.068Z,11.43
2023-05-09T10:14:39.640Z,11.41
2023-05-09T10:17:08.276Z,11.39
2023-05-09T10:19:39.113Z,11.37
2023-05-09T10:22:12.706Z,11.33
2023-05-09T10:24:58.086Z,11.32
2023-05-09T10:27:30.363Z,11.31
2023-05-09T10:30:23.407Z,11.27
2023-05-09T10:33:13.220Z,11.24
2023-05-09T10:35:49.181Z,11.19
2023-05-09T10:38:18.244Z,11.17
2023-05-09T10:40:49.041Z,11.13
2023-05-09T10:43:17.552Z,11.08
2023-05-09T10:45:46.109Z,11.05
2023-05-09T10:48:15.284Z,11.06
2023-05-09T10:50:44.440Z,11.08
2023-05-09T10:53:14.903Z,11.05
2023-05-09T10:55:48.858Z,11.02
2023-05-09T10:58:28.745Z,11.00
2023-05-09T11:00:59.344Z,11.00
2023-05-09T11:03:29.424Z,10.98
2023-05-09T11:05:59.153Z,10.97
2023-05-09T11:08:29.142Z,10.97
2023-05-09T11:11:01.339Z,10.97
2023-05-09T11:13:33.081Z,10.98
2023-05-09T11:16:03.915Z,10.96
2023-05-09T11:18:33.642Z,10.94
2023-05-09T11:21:10.421Z,10.96
2023-05-09T11:23:40.129Z,10.95
2023-05-09T11:26:10.273Z,10.93
2023-05-09T11:28:40.065Z,10.92
2023-05-09T11:31:18.231Z,10.91
2023-05-09T11:33:49.979Z,10.88
2023-05-09T11:36:32.585Z,10.84
2023-05-09T11:39:11.630Z,10.83
2023-05-09T11:41:48.746Z,10.79
2023-05-09T11:44:19.134Z,10.78
2023-05-09T11:46:48.942Z,10.75
2023-05-09T11:49:17.964Z,10.71
2023-05-09T11:51:46.319Z,10.70
2023-05-09T11:54:15.691Z,10.68
2023-05-09T11:56:44.128Z,10.66
2023-05-09T11:59:15.375Z,10.63
2023-05-09T12:01:43.692Z,10.62
2023-05-09T12:04:12.040Z,10.64
2023-05-09T12:06:40.476Z,10.64
2023-05-09T12:09:11.118Z,10.63
2023-05-09T12:11:39.341Z,10.65
2023-05-09T12:14:07.485Z,10.65
2023-05-09T12:16:35.842Z,10.70
2023-05-09T12:19:05.903Z,10.70
2023-05-09T12:21:34.446Z,10.71
2023-05-09T12:24:02.995Z,10.73
2023-05-09T12:26:31.901Z,10.72
2023-05-09T12:29:00.419Z,10.71
2023-05-09T12:31:29.462Z,10.68
2023-05-09T12:33:57.798Z,10.65
2023-05-09T12:36:26.820Z,10.62
2023-05-09T12:38:56.218Z,10.61
2023-05-09T12:43:56.907Z,10.57
2023-05-09T12:46:25.297Z,10.56
2023-05-09T12:48:53.647Z,10.56
2023-05-09T12:51:22.800Z,10.55
2023-05-09T12:53:51.207Z,10.54
2023-05-09T12:56:21.120Z,10.52
2023-05-09T12:58:55.042Z,10.49
2023-05-09T13:01:28.304Z,10.49
2023-05-09T13:04:08.819Z,10.48
2023-05-09T13:06:50.767Z,10.48
2023-05-09T13:09:19.870Z,10.47
2023-05-09T13:11:48.650Z,10.44
2023-05-09T13:14:16.963Z,10.39
2023-05-09T13:16:45.817Z,10.38
2023-05-09T13:19:14.302Z,10.38
2023-05-09T13:21:42.634Z,10.42
2023-05-09T13:24:10.837Z,10.44
2023-05-09T13:26:39.029Z,10.46
2023-05-09T13:29:07.283Z,10.49
2023-05-09T13:31:35.580Z,10.52
2023-05-09T13:34:03.756Z,10.54
2023-05-09T13:36:33.384Z,10.55
2023-05-09T13:39:01.661Z,10.57
2023-05-09T13:41:32.647Z,10.57
2023-05-09T13:44:00.900Z,10.59
2023-05-09T13:46:29.277Z,10.63
2023-05-09T13:48:57.633Z,10.63
2023-05-09T13:51:25.962Z,10.65
2023-05-09T13:53:54.149Z,10.68
2023-05-09T13:56:22.348Z,10.73
2023-05-09T13:58:50.640Z,10.78
2023-05-09T14:01:19.229Z,10.85
2023-05-09T14:03:49.916Z,10.91
2023-05-09T14:06:18.251Z,10.95
2023-05-09T14:08:47.080Z,11.00
2023-05-09T14:11:15.340Z,11.05
2023-05-09T14:13:43.523Z,11.09
2023-05-09T14:16:11.782Z,11.17
2023-05-09T14:18:40.074Z,11.26
2023-05-09T14:21:08.467Z,11.38
2023-05-09T14:23:36.786Z,11.45
2023-05-09T14:26:05.035Z,11.53
2023-05-09T14:28:33.510Z,11.62
2023-05-09T14:31:02.213Z,11.73
2023-05-09T14:33:30.492Z,11.78
2023-05-09T14:35:58.762Z,11.87
2023-05-09T14:38:27.029Z,11.95
2023-05-09T14:40:55.331Z,12.04
2023-05-09T14:43:23.608Z,12.14
2023-05-09T14:45:52.669Z,12.22
2023-05-09T14:48:21.218Z,12.29
2023-05-09T14:50:50.563Z,12.36
2023-05-09T14:53:18.836Z,12.41
2023-05-09T14:55:47.175Z,12.42
2023-05-09T14:58:16.916Z,12.42
2023-05-09T15:00:46.304Z,12.47
2023-05-09T15:03:14.708Z,12.55
2023-05-09T15:05:43.209Z,12.62
2023-05-09T15:08:11.569Z,12.68
2023-05-09T15:10:39.810Z,12.76
2023-05-09T15:13:08.075Z,12.87
2023-05-09T15:15:39.160Z,12.97
2023-05-09T15:18:11.017Z,13.07
2023-05-09T15:20:39.390Z,13.17
2023-05-09T15:23:08.642Z,13.28
2023-05-09T15:25:37.176Z,13.39
2023-05-09T15:28:05.473Z,13.54
2023-05-09T15:30:35.258Z,13.67
2023-05-09T15:33:04.468Z,13.78
2023-05-09T15:35:32.707Z,13.80
2023-05-09T15:38:01.890Z,13.83
2023-05-09T15:40:30.158Z,13.88
2023-05-09T15:42:59.295Z,13.95
2023-05-09T15:45:27.549Z,14.02
2023-05-09T15:47:55.849Z,14.13
2023-05-09T15:50:24.106Z,14.23
2023-05-09T15:52:53.292Z,14.24
2023-05-09T15:55:21.830Z,14.27
2023-05-09T15:57:50.123Z,14.27
2023-05-09T16:00:18.665Z,14.33
2023-05-09T16:02:47.283Z,14.39
2023-05-09T16:05:15.641Z,14.43
2023-05-09T16:07:47.095Z,14.44
2023-05-09T16:10:15.819Z,14.47
2023-05-09T16:12:44.440Z,14.51
2023-05-09T16:15:13.333Z,14.58
2023-05-09T16:17:42.051Z,14.66
2023-05-09T16:20:14.477Z,14.80
2023-05-09T16:22:43.318Z,14.90
2023-05-09T16:25:12.343Z,15.05
2023-05-09T16:27:40.581Z,15.21
2023-05-09T16:30:09.548Z,15.28
2023-05-09T16:32:37.914Z,15.36
2023-05-09T16:35:06.766Z,15.44
2023-05-09T16:37:35.716Z,15.44
2023-05-09T16:40:05.227Z,15.46
2023-05-09T16:42:33.840Z,15.55
2023-05-09T16:45:02.079Z,15.60
2023-05-09T16:47:30.341Z,15.67
2023-05-09T16:49:58.625Z,15.75
2023-05-09T16:52:27.650Z,15.67
2023-05-09T16:54:55.853Z,15.67
2023-05-09T16:57:24.047Z,15.60
2023-05-09T16:59:52.432Z,15.66
2023-05-09T17:02:20.770Z,15.88
2023-05-09T17:04:49.606Z,16.05
2023-05-09T17:07:18.013Z,16.21
2023-05-09T17:09:46.400Z,16.18
2023-05-09T17:12:18.567Z,16.14
2023-05-09T17:14:48.481Z,16.09
2023-05-09T17:17:18.490Z,16.06
2023-05-09T17:19:47.126Z,16.05
2023-05-09T17:22:15.338Z,16.00
2023-05-09T17:24:43.530Z,15.90
2023-05-09T17:27:12.272Z,15.84
2023-05-09T17:29:40.452Z,15.88
2023-05-09T17:32:08.664Z,16.02
2023-05-09T17:34:36.855Z,16.15
2023-05-09T17:37:06.590Z,16.22
2023-05-09T17:39:34.871Z,16.36
2023-05-09T17:42:03.289Z,16.45
2023-05-09T17:44:31.768Z,16.52
2023-05-09T17:47:00.054Z,16.68
2023-05-09T17:49:29.470Z,16.78
2023-05-09T17:51:57.765Z,16.84
2023-05-09T17:54:26.073Z,16.96
2023-05-09T17:56:59.815Z,17.05
2023-05-09T17:59:29.001Z,17.24
2023-05-09T18:01:57.379Z,17.35
2023-05-09T18:04:26.649Z,17.50
2023-05-09T18:06:55.063Z,17.57
2023-05-09T18:09:23.550Z,17.54
2023-05-09T18:11:51.805Z,17.44
2023-05-09T18:14:20.156Z,17.34
2023-05-09T18:16:48.719Z,17.47
2023-05-09T18:19:16.934Z,17.59
2023-05-09T18:21:45.123Z,17.71
2023-05-09T18:24:14.909Z,17.84
2023-05-09T18:26:44.582Z,17.95
2023-05-09T18:29:13.052Z,17.99
2023-05-09T18:31:42.322Z,17.96
2023-05-09T18:34:10.565Z,17.91
2023-05-09T18:36:38.871Z,17.91
2023-05-09T18:39:07.105Z,18.09
2023-05-09T18:41:35.378Z,18.27
2023-05-09T18:44:03.654Z,18.32
2023-05-09T18:46:34.329Z,18.36
2023-05-09T18:49:04.586Z,18.53
2023-05-09T18:51:33.099Z,18.73
2023-05-09T18:54:01.319Z,18.76
2023-05-09T18:56:29.552Z,18.83
2023-05-09T18:59:02.203Z,18.80
2023-05-09T19:01:30.527Z,18.80
2023-05-09T19:03:59.162Z,18.83
2023-05-09T19:06:27.861Z,18.92
2023-05-09T19:08:56.309Z,19.03
2023-05-09T19:11:24.613Z,19.20
2023-05-09T19:13:53.724Z,19.28
2023-05-09T19:16:23.317Z,19.39
2023-05-09T19:18:52.192Z,19.55
2023-05-09T19:21:20.460Z,19.55
2023-05-09T19:23:50.069Z,19.45
2023-05-09T19:26:20.677Z,19.61
2023-05-09T19:28:49.298Z,19.76
2023-05-09T19:31:19.704Z,19.88
2023-05-09T19:33:48.903Z,20.00
2023-05-09T19:36:18.642Z,20.15
2023-05-09T19:38:47.133Z,20.27
2023-05-09T19:41:15.373Z,20.50
2023-05-09T19:43:43.815Z,20.31
2023-05-09T19:46:12.110Z,20.21
2023-05-09T19:48:40.352Z,19.75
2023-05-09T19:51:09.737Z,19.30
2023-05-09T19:53:37.965Z,19.06
2023-05-09T19:56:08.756Z,19.13
2023-05-09T19:58:37.249Z,19.28
2023-05-09T20:01:08.664Z,19.16
2023-05-09T20:03:37.820Z,18.96
2023-05-09T20:06:06.630Z,19.20
2023-05-09T20:08:34.933Z,19.51
2023-05-09T20:11:04.055Z,19.74
2023-05-09T20:13:32.239Z,20.05
2023-05-09T20:16:01.103Z,20.42
2023-05-09T20:18:29.421Z,20.66
2023-05-09T20:20:57.673Z,20.85
2023-05-09T20:23:25.903Z,20.50
2023-05-09T20:25:54.169Z,20.75
2023-05-09T20:28:23.317Z,20.95
2023-05-09T20:30:51.571Z,21.16
2023-05-09T20:33:19.894Z,21.39
2023-05-09T20:35:50.078Z,21.44
2023-05-09T20:38:18.320Z,21.50
2023-05-09T20:40:46.928Z,21.40
2023-05-09T20:43:15.116Z,21.43
2023-05-09T20:45:43.931Z,21.56
2023-05-09T20:48:12.696Z,21.62
2023-05-09T20:50:40.891Z,21.80
2023-05-09T20:53:09.088Z,21.83
2023-05-09T20:55:37.340Z,21.97
2023-05-09T20:58:05.527Z,22.08
2023-05-09T21:00:33.884Z,22.23
2023-05-09T21:03:02.403Z,22.15
2023-05-09T21:05:30.728Z,21.97
2023-05-09T21:07:59.017Z,22.05
2023-05-09T21:10:27.379Z,22.27
2023-05-09T21:12:55.621Z,22.44
2023-05-09T21:15:23.837Z,22.60
2023-05-09T21:17:52.137Z,22.93
2023-05-09T21:20:20.486Z,23.35
2023-05-09T21:22:49.172Z,23.45
2023-05-09T21:25:18.322Z,23.52
2023-05-09T21:27:47.195Z,23.25
2023-05-09T21:30:15.965Z,22.80
2023-05-09T21:32:44.319Z,22.89
2023-05-09T21:35:13.910Z,23.10
2023-05-09T21:37:42.229Z,23.29
2023-05-09T21:40:10.974Z,23.33
2023-05-09T21:42:41.565Z,22.88
2023-05-09T21:45:10.090Z,23.07
2023-05-09T21:47:40.627Z,23.28
2023-05-09T21:50:09.593Z,23.23
2023-05-09T21:52:37.846Z,23.07
2023-05-09T21:55:06.538Z,22.93
2023-05-09T21:57:34.815Z,22.67
2023-05-09T22:00:05.952Z,22.43
2023-05-09T22:02:34.990Z,22.44
2023-05-09T22:05:03.507Z,22.48
2023-05-09T22:07:31.745Z,22.48
2023-05-09T22:10:04.436Z,22.43
2023-05-09T22:12:32.738Z,22.55
2023-05-09T22:15:01.025Z,22.67
2023-05-09T22:17:29.280Z,23.06
2023-05-09T22:19:57.604Z,23.21
2023-05-09T22:22:25.811Z,23.10
2023-05-09T22:24:54.440Z,23.11
2023-05-09T22:27:22.821Z,23.13
2023-05-09T22:29:51.135Z,23.18
2023-05-09T22:32:19.329Z,23.36
2023-05-09T22:34:50.685Z,23.58
2023-05-09T22:37:18.909Z,23.45
2023-05-09T22:39:47.115Z,23.29
2023-05-09T22:42:15.415Z,23.18
2023-05-09T22:44:44.091Z,22.80
2023-05-09T22:47:12.346Z,22.63
2023-05-09T22:49:40.546Z,22.62
2023-05-09T22:52:08.741Z,22.59
2023-05-09T22:54:37.128Z,22.43
2023-05-09T22:57:05.438Z,22.35
2023-05-09T22:59:34.169Z,22.23
2023-05-09T23:02:02.478Z,22.12
2023-05-09T23:04:30.759Z,22.08
2023-05-09T23:06:59.030Z,21.87
2023-05-09T23:09:27.232Z,21.66
2023-05-09T23:11:56.030Z,21.55
2023-05-09T23:14:24.264Z,21.33
2023-05-09T23:16:52.444Z,21.10
2023-05-09T23:19:20.907Z,21.01
2023-05-09T23:21:49.518Z,20.97
2023-05-09T23:24:17.802Z,20.68
2023-05-09T23:26:49.069Z,20.55
2023-05-09T23:29:17.298Z,20.43
2023-05-09T23:31:45.625Z,20.29
2023-05-09T23:34:13.943Z,20.19
2023-05-09T23:36:42.145Z,20.15
2023-05-09T23:39:10.394Z,20.18
2023-05-09T23:44:08.467Z,20.01
2023-05-09T23:46:36.798Z,19.97
2023-05-09T23:49:05.377Z,19.87
2023-05-09T23:51:33.719Z,19.63
2023-05-09T23:54:01.996Z,19.47
2023-05-09T23:56:30.216Z,19.51
2023-05-09T23:58:58.560Z,19.51
